This is the latest recevied weather packets stored in our database for station/object PD3EM. If no packets are shown the sender has not sent any weather packets the latest 10 day(s).
| Time | Temp. | Humidity | Pressure | Rain* | Wind** | Luminosity | Snow |
|---|---|---|---|---|---|---|---|
| 1777735555 | 22.78° C | 59% | 1017.2 hPa | 0 mm | - | 352 W/m² | - |
| 1777733711 | 22.78° C | 61% | 1017.5 hPa | 0 mm | - | 409 W/m² | - |
| 1777731306 | 23.33° C | 59% | 1017.7 hPa | 0 mm | - | 457 W/m² | - |
| 1777727758 | 25° C | 58% | 1018.8 hPa | 0 mm | - | 505 W/m² | - |
| 1777726556 | 24.44° C | 59% | 1019 hPa | 0 mm | - | 476 W/m² | - |
| 1777725995 | 24.44° C | 59% | 1018.7 hPa | 0 mm | - | 455 W/m² | - |
| 1777721746 | 24.44° C | 60% | 1019.5 hPa | 0 mm | - | 667 W/m² | - |
| 1777713930 | 21.11° C | 68% | 1020.4 hPa | 0 mm | - | 343 W/m² | - |
| 1777713329 | 20° C | 70% | 1020.5 hPa | 0 mm | - | 568 W/m² | - |
| 1777708519 | 16.11° C | 71% | 1020.3 hPa | 0 mm | - | 282 W/m² | - |
| 1777706114 | 14.44° C | 71% | 1019.9 hPa | 0 mm | - | 94 W/m² | - |
| 1777691625 | 11.67° C | 64% | 1020.3 hPa | 0 mm | - | 0 W/m² | - |
| 1777688659 | 12.22° C | 60% | 1020.5 hPa | 0 mm | - | 0 W/m² | - |
| 1777687417 | 12.78° C | 60% | 1020.5 hPa | 0 mm | - | 0 W/m² | - |
| 1777686214 | 12.78° C | 60% | 1020.6 hPa | 0 mm | - | 0 W/m² | - |
| 1777684411 | 12.78° C | 60% | 1020.8 hPa | 0 mm | - | 0 W/m² | - |
| 1777683810 | 12.78° C | 60% | 1020.8 hPa | 0 mm | - | 0 W/m² | - |
| 1777682607 | 12.78° C | 60% | 1021.1 hPa | 0 mm | - | 0 W/m² | - |
| 1777682026 | 12.78° C | 60% | 1021.2 hPa | 0 mm | - | 0 W/m² | - |
| 1777681405 | 12.78° C | 61% | 1021.1 hPa | 0 mm | - | 0 W/m² | - |
| 1777675392 | 13.33° C | 60% | 1022 hPa | 0 mm | - | 0 W/m² | - |
| 1777673589 | 13.33° C | 58% | 1022 hPa | 0 mm | - | 0 W/m² | - |
| 1777672386 | 14.44° C | 55% | 1022.1 hPa | 0 mm | - | 0 W/m² | - |
| 1777666976 | 15.56° C | 53% | 1022.3 hPa | 0 mm | - | 0 W/m² | - |
| 1777666414 | 16.11° C | 51% | 1022.3 hPa | 0 mm | - | 0 W/m² | - |
* Rain latest hour (hover to see other rain measurements)
** Current wind speed in m/s (hover to see current wind gust speed)